createdAt,value
2019-01-31T00:02:13.037Z,53.93
2019-01-31T00:04:59.444Z,79.07
2019-01-31T00:07:53.850Z,60.63
2019-01-31T00:10:41.554Z,67.23
2019-01-31T00:13:42.409Z,57.53
2019-01-31T00:16:30.438Z,50.93
2019-01-31T00:19:21.234Z,50.97
2019-01-31T00:22:11.562Z,55.03
2019-01-31T00:24:54.010Z,66.63
2019-01-31T00:27:45.457Z,48.40
2019-01-31T00:30:46.324Z,54.33
2019-01-31T00:33:40.691Z,52.27
2019-01-31T00:36:18.823Z,52.47
2019-01-31T00:38:57.283Z,65.80
2019-01-31T00:41:41.898Z,55.83
2019-01-31T00:44:28.986Z,44.00
2019-01-31T00:47:16.599Z,64.43
2019-01-31T00:50:12.526Z,52.97
2019-01-31T00:53:00.710Z,53.27
2019-01-31T00:55:44.886Z,52.70
2019-01-31T00:58:28.511Z,56.83
2019-01-31T01:01:13.271Z,68.00
2019-01-31T01:04:15.592Z,60.77
2019-01-31T01:07:29.449Z,44.23
2019-01-31T01:10:20.401Z,70.07
2019-01-31T01:13:04.741Z,52.80
2019-01-31T01:15:42.884Z,57.77
2019-01-31T01:18:34.233Z,55.53
2019-01-31T01:21:15.131Z,42.70
2019-01-31T01:23:59.323Z,58.47
2019-01-31T01:26:37.803Z,50.70
2019-01-31T01:29:18.552Z,54.73
2019-01-31T01:32:00.782Z,58.07
2019-01-31T01:34:41.509Z,54.37
2019-01-31T01:37:19.650Z,63.87
2019-01-31T01:40:10.352Z,57.57
2019-01-31T01:43:10.755Z,55.87
2019-01-31T01:45:57.961Z,51.33
2019-01-31T01:49:03.440Z,63.53
2019-01-31T01:52:01.121Z,54.47
2019-01-31T01:54:52.422Z,68.60
2019-01-31T01:57:59.842Z,49.90
2019-01-31T02:00:43.778Z,53.60
2019-01-31T02:03:53.419Z,46.37
2019-01-31T02:06:49.590Z,61.03
2019-01-31T02:09:54.767Z,61.47
2019-01-31T02:12:42.940Z,57.03
2019-01-31T02:15:24.089Z,48.30
2019-01-31T02:18:22.605Z,63.17
2019-01-31T02:21:06.548Z,56.50
2019-01-31T02:23:47.591Z,48.27
2019-01-31T02:26:39.028Z,53.63
2019-01-31T02:29:39.548Z,57.53
2019-01-31T02:32:52.029Z,47.77
2019-01-31T02:35:36.514Z,56.63
2019-01-31T02:38:32.084Z,53.23
2019-01-31T02:41:10.215Z,55.60
2019-01-31T02:43:55.390Z,67.17
2019-01-31T02:46:33.867Z,61.37
2019-01-31T02:49:27.926Z,53.53
2019-01-31T02:52:09.696Z,48.73
2019-01-31T02:54:51.342Z,50.47
2019-01-31T02:57:31.951Z,48.60
2019-01-31T03:00:41.148Z,65.13
2019-01-31T03:03:26.114Z,49.60
2019-01-31T03:06:10.647Z,43.73
2019-01-31T03:08:48.790Z,59.23
2019-01-31T03:11:37.324Z,48.13
2019-01-31T03:14:15.818Z,51.50
2019-01-31T03:17:00.918Z,53.83
2019-01-31T03:19:41.586Z,46.10
2019-01-31T03:22:26.226Z,64.37
2019-01-31T03:25:13.813Z,54.30
2019-01-31T03:28:10.088Z,55.03
2019-01-31T03:30:51.062Z,52.70
2019-01-31T03:33:41.878Z,50.77
2019-01-31T03:36:20.281Z,52.13
2019-01-31T03:39:32.566Z,55.17
2019-01-31T03:42:32.930Z,64.50
2019-01-31T03:45:29.846Z,61.17
2019-01-31T03:48:11.333Z,46.27
2019-01-31T03:50:58.036Z,53.67
2019-01-31T03:53:39.633Z,43.80
2019-01-31T03:56:24.631Z,66.50
2019-01-31T03:59:12.129Z,53.47
2019-01-31T04:02:08.037Z,60.60
2019-01-31T04:05:09.053Z,40.90
2019-01-31T04:07:43.941Z,47.03
2019-01-31T04:10:19.365Z,46.80
2019-01-31T04:12:54.442Z,53.70
2019-01-31T04:15:29.281Z,53.97
2019-01-31T04:18:04.659Z,53.50
2019-01-31T04:20:39.842Z,57.63
2019-01-31T04:23:15.382Z,42.60
2019-01-31T04:25:50.226Z,48.17
2019-01-31T04:28:25.160Z,61.17
2019-01-31T04:31:00.301Z,50.17
2019-01-31T04:33:35.173Z,51.67
2019-01-31T04:36:10.761Z,44.47
2019-01-31T04:38:45.868Z,42.83
2019-01-31T04:41:21.068Z,50.33
2019-01-31T04:43:56.283Z,56.37
2019-01-31T04:46:31.758Z,52.07
2019-01-31T04:49:06.973Z,50.20
2019-01-31T04:51:42.296Z,46.73
2019-01-31T04:54:18.045Z,54.90
2019-01-31T04:56:52.917Z,52.60
2019-01-31T04:59:27.772Z,50.37
2019-01-31T05:02:02.643Z,59.03
2019-01-31T05:04:38.857Z,49.40
2019-01-31T05:07:13.817Z,55.97
2019-01-31T05:09:49.391Z,56.07
2019-01-31T05:12:24.624Z,48.23
2019-01-31T05:15:00.422Z,45.93
2019-01-31T05:17:35.627Z,42.97
2019-01-31T05:20:16.185Z,53.33
2019-01-31T05:22:51.340Z,47.70
2019-01-31T05:25:27.385Z,46.63
2019-01-31T05:28:02.224Z,39.87
2019-01-31T05:30:37.100Z,46.00
2019-01-31T05:33:13.651Z,43.33
2019-01-31T05:35:49.113Z,43.50
2019-01-31T05:38:23.954Z,48.50
2019-01-31T05:40:59.561Z,36.23
2019-01-31T05:43:34.463Z,40.37
2019-01-31T05:46:09.368Z,24.17
2019-01-31T05:48:45.096Z,52.47
2019-01-31T05:51:19.968Z,46.53
2019-01-31T05:53:54.811Z,45.50
2019-01-31T05:56:30.596Z,43.80
2019-01-31T05:59:05.890Z,35.83
2019-01-31T06:01:41.018Z,53.83
2019-01-31T06:04:16.231Z,43.90
2019-01-31T06:06:51.141Z,38.90
2019-01-31T06:09:27.382Z,51.77
2019-01-31T06:12:02.502Z,50.90
2019-01-31T06:14:37.451Z,46.07
2019-01-31T06:17:12.599Z,39.03
2019-01-31T06:19:47.475Z,59.53
2019-01-31T06:22:24.959Z,46.57
2019-01-31T06:25:00.606Z,49.57
2019-01-31T06:27:37.326Z,52.10
2019-01-31T06:30:15.281Z,53.87
2019-01-31T06:32:50.746Z,56.50
2019-01-31T06:35:25.606Z,47.83
2019-01-31T06:38:00.801Z,63.53
2019-01-31T06:40:35.658Z,51.03
2019-01-31T06:43:12.164Z,50.10
2019-01-31T06:45:47.197Z,42.90
2019-01-31T06:48:22.182Z,58.63
2019-01-31T06:50:57.074Z,55.80
2019-01-31T06:53:31.932Z,45.70
2019-01-31T06:56:06.874Z,42.67
2019-01-31T06:58:41.715Z,51.80
2019-01-31T07:01:16.549Z,50.07
2019-01-31T07:03:51.825Z,47.40
2019-01-31T07:06:26.970Z,41.73
2019-01-31T07:09:01.910Z,44.67
2019-01-31T07:11:39.985Z,58.83
2019-01-31T07:14:15.152Z,58.93
2019-01-31T07:16:50.392Z,68.67
2019-01-31T07:19:25.523Z,60.43
2019-01-31T07:22:00.660Z,40.10
2019-01-31T07:24:35.921Z,54.53
2019-01-31T07:27:10.760Z,39.77
2019-01-31T07:29:45.640Z,44.43
2019-01-31T07:32:21.313Z,42.90
2019-01-31T07:34:56.464Z,38.00
2019-01-31T07:37:31.765Z,44.87
2019-01-31T07:40:09.481Z,45.57
2019-01-31T07:42:44.770Z,46.13
2019-01-31T07:45:26.523Z,44.60
2019-01-31T07:48:01.671Z,48.93
2019-01-31T07:50:36.809Z,40.60
2019-01-31T07:53:12.887Z,61.57
2019-01-31T07:55:48.201Z,53.40
2019-01-31T07:58:23.689Z,35.87
2019-01-31T08:00:58.545Z,47.57
2019-01-31T08:03:33.755Z,43.03
2019-01-31T08:06:08.956Z,48.70
2019-01-31T08:08:45.153Z,45.93
2019-01-31T08:11:21.182Z,50.23
2019-01-31T08:13:57.109Z,44.60
2019-01-31T08:16:31.989Z,40.50
2019-01-31T08:19:06.906Z,53.07
2019-01-31T08:21:44.863Z,42.20
2019-01-31T08:24:20.639Z,55.07
2019-01-31T08:26:56.095Z,45.50
2019-01-31T08:29:32.277Z,40.30
2019-01-31T08:32:07.208Z,46.77
2019-01-31T08:34:42.975Z,42.20
2019-01-31T08:37:17.829Z,39.67
2019-01-31T08:39:52.678Z,40.37
2019-01-31T08:42:28.881Z,39.10
2019-01-31T08:45:06.968Z,61.33
2019-01-31T08:47:41.829Z,44.13
2019-01-31T08:50:19.856Z,42.83
2019-01-31T08:52:55.054Z,51.77
2019-01-31T08:55:30.078Z,32.97
2019-01-31T08:58:05.233Z,50.33
2019-01-31T09:00:41.223Z,51.93
2019-01-31T09:03:16.056Z,48.77
2019-01-31T09:05:50.933Z,67.77
2019-01-31T09:08:25.784Z,47.80
2019-01-31T09:11:00.925Z,38.00
2019-01-31T09:13:38.067Z,34.60
2019-01-31T09:16:12.629Z,46.50
2019-01-31T09:18:47.484Z,36.37
2019-01-31T09:21:28.537Z,43.50
2019-01-31T09:24:10.400Z,46.13
2019-01-31T09:27:02.274Z,47.00
2019-01-31T09:29:47.386Z,41.17
2019-01-31T09:32:38.861Z,50.60
2019-01-31T09:35:20.647Z,40.07
2019-01-31T09:37:58.802Z,63.60
2019-01-31T09:40:49.855Z,33.43
2019-01-31T09:43:41.016Z,50.50
2019-01-31T09:46:39.486Z,45.63
2019-01-31T09:49:27.583Z,41.07
2019-01-31T09:52:24.853Z,44.97
2019-01-31T09:55:07.330Z,35.23
2019-01-31T09:57:52.553Z,49.53
2019-01-31T10:00:37.375Z,49.50
2019-01-31T10:03:24.533Z,38.87
2019-01-31T10:06:06.913Z,45.63
2019-01-31T10:08:51.721Z,43.83
2019-01-31T10:11:55.973Z,34.93
2019-01-31T10:14:39.255Z,38.73
2019-01-31T10:17:35.405Z,36.93
2019-01-31T10:20:45.786Z,50.00
2019-01-31T10:23:53.581Z,40.50
2019-01-31T10:26:49.586Z,30.23
2019-01-31T10:29:45.809Z,55.97
2019-01-31T10:32:27.284Z,24.33
2019-01-31T10:35:31.742Z,40.57
2019-01-31T10:38:12.668Z,42.67
2019-01-31T10:41:14.563Z,34.00
2019-01-31T10:44:02.236Z,45.93
2019-01-31T10:46:48.159Z,34.43
2019-01-31T10:49:32.850Z,37.63
2019-01-31T10:52:14.463Z,47.87
2019-01-31T10:55:23.297Z,32.70
2019-01-31T10:58:04.514Z,33.30
2019-01-31T11:01:02.925Z,44.83
2019-01-31T11:03:47.447Z,40.60
2019-01-31T11:06:32.039Z,38.27
2019-01-31T11:09:16.492Z,28.57
2019-01-31T11:12:00.927Z,37.70
2019-01-31T11:14:48.756Z,39.10
2019-01-31T11:17:44.300Z,44.40
2019-01-31T11:20:54.451Z,36.23
2019-01-31T11:23:45.585Z,29.77
2019-01-31T11:26:26.340Z,43.60
2019-01-31T11:29:25.749Z,40.97
2019-01-31T11:32:09.999Z,47.90
2019-01-31T11:35:11.133Z,36.17
2019-01-31T11:38:10.593Z,41.47
2019-01-31T11:41:12.213Z,47.40
2019-01-31T11:43:59.946Z,40.80
2019-01-31T11:47:09.789Z,25.07
2019-01-31T11:49:49.932Z,34.80
2019-01-31T11:52:43.458Z,34.63
2019-01-31T11:55:21.687Z,30.03
2019-01-31T11:58:13.052Z,35.13
2019-01-31T12:00:48.177Z,27.27
2019-01-31T12:03:23.109Z,35.70
2019-01-31T12:05:58.255Z,29.27
2019-01-31T12:08:33.203Z,32.43
2019-01-31T12:11:08.319Z,21.40
2019-01-31T12:13:43.581Z,26.27
2019-01-31T12:16:18.738Z,29.00
2019-01-31T12:18:54.042Z,25.00
2019-01-31T12:21:30.826Z,26.10
2019-01-31T12:24:15.831Z,25.73
2019-01-31T12:26:44.372Z,47.47
2019-01-31T12:29:20.435Z,27.10
2019-01-31T12:31:55.278Z,36.33
2019-01-31T12:34:30.270Z,28.97
2019-01-31T12:37:05.186Z,27.77
2019-01-31T12:39:44.298Z,15.10
2019-01-31T12:42:19.142Z,25.13
2019-01-31T12:44:54.334Z,16.70
2019-01-31T12:47:29.457Z,29.57
2019-01-31T12:50:07.363Z,26.63
2019-01-31T12:52:42.598Z,32.43
2019-01-31T12:55:17.768Z,29.60
2019-01-31T12:57:52.989Z,18.50
2019-01-31T13:00:29.057Z,24.67
2019-01-31T13:03:03.880Z,17.27
2019-01-31T13:05:38.728Z,23.83
2019-01-31T13:08:14.659Z,30.20
2019-01-31T13:10:50.109Z,17.63
2019-01-31T13:13:25.884Z,24.47
2019-01-31T13:16:00.762Z,25.17
2019-01-31T13:18:35.658Z,32.30
2019-01-31T13:21:10.886Z,23.87
2019-01-31T13:23:45.721Z,25.37
2019-01-31T13:26:20.561Z,20.10
2019-01-31T13:28:55.518Z,31.97
2019-01-31T13:31:30.701Z,22.97
2019-01-31T13:34:06.065Z,24.53
2019-01-31T13:36:40.929Z,26.40
2019-01-31T13:39:17.222Z,30.77
2019-01-31T13:41:54.010Z,25.20
2019-01-31T13:44:29.245Z,30.97
2019-01-31T13:47:04.257Z,28.10
2019-01-31T13:49:39.527Z,25.13
2019-01-31T13:52:14.390Z,23.07
2019-01-31T13:54:49.485Z,22.43
2019-01-31T13:57:24.513Z,40.57
2019-01-31T14:00:00.443Z,24.87
2019-01-31T14:02:35.360Z,18.03
2019-01-31T14:05:10.228Z,35.57
2019-01-31T14:07:45.273Z,34.47
2019-01-31T14:10:22.574Z,27.20
2019-01-31T14:12:57.422Z,37.00
2019-01-31T14:15:34.296Z,29.93
2019-01-31T14:18:11.093Z,29.07
2019-01-31T14:20:46.916Z,23.60
2019-01-31T14:23:21.860Z,36.93
2019-01-31T14:25:56.705Z,29.60
2019-01-31T14:28:31.558Z,29.50
2019-01-31T14:31:07.389Z,32.63
2019-01-31T14:33:42.701Z,26.00
2019-01-31T14:36:17.557Z,29.73
2019-01-31T14:38:52.445Z,28.67
2019-01-31T14:41:27.306Z,34.70
2019-01-31T14:44:03.617Z,27.13
2019-01-31T14:46:38.613Z,32.80
2019-01-31T14:49:13.468Z,30.80
2019-01-31T14:51:48.684Z,32.77
2019-01-31T14:54:23.607Z,31.57
2019-01-31T14:56:58.472Z,38.60
2019-01-31T14:59:35.772Z,29.13
2019-01-31T15:02:10.615Z,26.27
2019-01-31T15:04:45.829Z,51.93
2019-01-31T15:07:20.702Z,44.40
2019-01-31T15:09:55.653Z,40.67
2019-01-31T15:12:30.603Z,50.03
2019-01-31T15:15:08.591Z,43.07
2019-01-31T15:17:45.155Z,39.20
2019-01-31T15:20:37.507Z,28.27
2019-01-31T15:23:05.809Z,20.97
2019-01-31T15:25:40.920Z,20.33
2019-01-31T15:28:16.083Z,27.53
2019-01-31T15:30:52.219Z,25.87
2019-01-31T15:33:27.595Z,26.67
2019-01-31T15:36:02.661Z,31.33
2019-01-31T15:38:37.934Z,36.17
2019-01-31T15:41:13.766Z,33.63
2019-01-31T15:43:49.031Z,34.33
2019-01-31T15:46:24.058Z,33.07
2019-01-31T15:48:58.923Z,37.37
2019-01-31T15:51:33.770Z,30.03
2019-01-31T15:54:08.978Z,47.17
2019-01-31T15:56:44.208Z,35.33
2019-01-31T15:59:19.037Z,36.67
2019-01-31T16:01:53.873Z,34.87
2019-01-31T16:04:28.763Z,36.57
2019-01-31T16:07:03.608Z,36.30
2019-01-31T16:09:38.589Z,47.83
2019-01-31T16:12:13.934Z,46.73
2019-01-31T16:14:55.061Z,46.97
2019-01-31T16:17:26.328Z,45.33
2019-01-31T16:20:01.669Z,41.43
2019-01-31T16:22:36.690Z,38.20
2019-01-31T16:25:12.510Z,39.17
2019-01-31T16:27:47.693Z,39.83
2019-01-31T16:30:23.302Z,46.90
2019-01-31T16:32:58.162Z,38.70
2019-01-31T16:35:33.137Z,35.20
2019-01-31T16:38:08.064Z,41.63
2019-01-31T16:40:43.182Z,43.03
2019-01-31T16:43:18.042Z,45.13
2019-01-31T16:45:52.886Z,42.93
2019-01-31T16:48:27.736Z,51.10
2019-01-31T16:51:02.600Z,37.80
2019-01-31T16:53:37.442Z,34.77
2019-01-31T16:56:12.310Z,37.70
2019-01-31T16:58:47.515Z,44.00
2019-01-31T17:01:22.374Z,42.80
2019-01-31T17:03:57.582Z,42.03
2019-01-31T17:06:32.659Z,59.40
2019-01-31T17:09:08.664Z,66.87
2019-01-31T17:11:43.758Z,64.27
2019-01-31T17:14:18.763Z,56.23
2019-01-31T17:16:54.194Z,69.10
2019-01-31T17:19:29.538Z,42.30
2019-01-31T17:22:06.560Z,53.73
2019-01-31T17:24:41.227Z,65.27
2019-01-31T17:27:20.610Z,58.10
2019-01-31T17:29:54.930Z,48.90
2019-01-31T17:32:29.791Z,52.83
2019-01-31T17:35:06.077Z,59.00
2019-01-31T17:37:41.027Z,57.87
2019-01-31T17:40:28.004Z,76.50
2019-01-31T17:43:02.860Z,57.77
2019-01-31T17:45:37.990Z,65.30
2019-01-31T17:48:15.643Z,58.90
2019-01-31T17:50:50.844Z,60.03
2019-01-31T17:53:26.898Z,66.17
2019-01-31T17:56:02.665Z,67.83
2019-01-31T17:58:37.591Z,67.63
2019-01-31T18:01:12.449Z,67.17
2019-01-31T18:03:48.578Z,66.43
2019-01-31T18:06:23.443Z,69.87
2019-01-31T18:08:58.664Z,67.20
2019-01-31T18:11:33.561Z,65.83
2019-01-31T18:14:08.571Z,59.43
2019-01-31T18:16:43.802Z,77.70
2019-01-31T18:19:18.662Z,61.77
2019-01-31T18:21:55.474Z,51.30
2019-01-31T18:24:30.709Z,61.10
2019-01-31T18:27:06.329Z,74.27
2019-01-31T18:29:41.183Z,62.80
2019-01-31T18:32:16.329Z,68.33
2019-01-31T18:34:51.482Z,73.70
2019-01-31T18:37:27.142Z,60.60
2019-01-31T18:40:01.996Z,75.73
2019-01-31T18:42:37.192Z,68.50
2019-01-31T18:45:18.697Z,80.10
2019-01-31T18:47:53.545Z,112.20
2019-01-31T18:50:39.908Z,56.87
2019-01-31T18:53:14.779Z,63.90
2019-01-31T18:55:49.726Z,76.73
2019-01-31T18:58:24.572Z,86.43
2019-01-31T19:01:00.345Z,72.97
2019-01-31T19:03:35.588Z,81.83
2019-01-31T19:06:11.846Z,67.13
2019-01-31T19:08:46.731Z,61.03
2019-01-31T19:11:22.046Z,73.37
2019-01-31T19:13:58.020Z,88.00
2019-01-31T19:16:34.142Z,67.17
2019-01-31T19:19:10.403Z,72.77
2019-01-31T19:21:47.488Z,50.27
2019-01-31T19:24:22.967Z,67.90
2019-01-31T19:26:59.098Z,68.83
2019-01-31T19:29:35.029Z,68.47
2019-01-31T19:32:09.879Z,74.53
2019-01-31T19:34:46.168Z,69.23
2019-01-31T19:37:22.032Z,66.47
2019-01-31T19:39:57.364Z,71.03
2019-01-31T19:42:32.905Z,75.10
2019-01-31T19:45:13.198Z,75.50
2019-01-31T19:47:48.254Z,86.87
2019-01-31T19:50:23.120Z,75.47
2019-01-31T19:52:58.231Z,67.70
2019-01-31T19:55:33.497Z,63.70
2019-01-31T19:58:08.655Z,63.23
2019-01-31T20:00:43.978Z,66.63
2019-01-31T20:03:19.222Z,63.37
2019-01-31T20:05:54.354Z,71.73
2019-01-31T20:08:29.503Z,82.77
2019-01-31T20:11:06.049Z,80.27
2019-01-31T20:13:43.828Z,76.50
2019-01-31T20:16:28.597Z,78.20
2019-01-31T20:18:56.332Z,77.60
2019-01-31T20:21:32.228Z,77.47
2019-01-31T20:24:07.523Z,67.60
2019-01-31T20:26:42.837Z,58.53
2019-01-31T20:29:19.947Z,74.67
2019-01-31T20:31:55.251Z,59.27
2019-01-31T20:34:31.606Z,65.23
2019-01-31T20:37:10.019Z,80.87
2019-01-31T20:39:45.494Z,64.63
2019-01-31T20:42:21.753Z,66.80
2019-01-31T20:44:57.681Z,140.00
2019-01-31T20:47:32.955Z,71.60
2019-01-31T20:50:11.170Z,68.03
2019-01-31T20:52:48.506Z,69.80
2019-01-31T20:55:23.486Z,64.23
2019-01-31T20:58:01.342Z,66.33
2019-01-31T21:00:39.239Z,68.93
2019-01-31T21:03:15.033Z,92.33
2019-01-31T21:05:50.276Z,64.93
2019-01-31T21:08:27.261Z,69.33
2019-01-31T21:11:02.508Z,63.33
2019-01-31T21:13:37.734Z,69.27
2019-01-31T21:16:13.014Z,73.57
2019-01-31T21:18:47.900Z,75.73
2019-01-31T21:21:24.435Z,73.67
2019-01-31T21:23:59.306Z,79.97
2019-01-31T21:26:34.333Z,76.43
2019-01-31T21:29:09.184Z,69.50
2019-01-31T21:31:44.417Z,74.20
2019-01-31T21:34:19.322Z,86.43
2019-01-31T21:36:55.242Z,83.53
2019-01-31T21:39:30.167Z,72.23
2019-01-31T21:42:07.755Z,93.13
2019-01-31T21:44:43.305Z,70.03
2019-01-31T21:47:18.434Z,86.23
2019-01-31T21:49:53.351Z,79.67
2019-01-31T21:52:28.217Z,75.07
2019-01-31T21:55:03.078Z,81.67
2019-01-31T21:57:38.435Z,80.60
2019-01-31T22:00:17.676Z,82.87
2019-01-31T22:02:52.655Z,59.57
2019-01-31T22:05:27.582Z,90.97
2019-01-31T22:08:03.456Z,89.27
2019-01-31T22:10:39.450Z,89.50
2019-01-31T22:13:14.601Z,90.53
2019-01-31T22:15:50.134Z,89.33
2019-01-31T22:18:24.991Z,76.17
2019-01-31T22:21:00.235Z,63.33
2019-01-31T22:23:35.557Z,81.27
2019-01-31T22:26:10.707Z,75.73
2019-01-31T22:28:45.583Z,80.83
2019-01-31T22:31:20.786Z,84.37
2019-01-31T22:33:55.671Z,81.00
2019-01-31T22:36:30.627Z,80.80
2019-01-31T22:39:07.272Z,84.73
2019-01-31T22:41:42.283Z,77.37
2019-01-31T22:44:17.311Z,82.53
2019-01-31T22:46:52.515Z,82.00
2019-01-31T22:49:27.354Z,76.20
2019-01-31T22:52:02.210Z,93.97
2019-01-31T22:54:37.413Z,81.90
2019-01-31T22:57:12.271Z,86.07
2019-01-31T22:59:47.122Z,79.20
2019-01-31T23:02:21.979Z,66.57
2019-01-31T23:04:57.155Z,77.87
2019-01-31T23:07:32.014Z,61.43
2019-01-31T23:10:10.175Z,74.73
2019-01-31T23:12:45.378Z,81.00
2019-01-31T23:15:20.222Z,91.43
2019-01-31T23:17:55.078Z,83.27
2019-01-31T23:20:30.029Z,78.93
2019-01-31T23:23:04.901Z,82.03
2019-01-31T23:25:40.619Z,87.83
2019-01-31T23:28:15.701Z,80.80
2019-01-31T23:30:50.740Z,82.40
2019-01-31T23:33:28.878Z,89.57
2019-01-31T23:36:04.436Z,78.30
2019-01-31T23:38:39.671Z,81.43
2019-01-31T23:41:14.809Z,72.33
2019-01-31T23:43:49.745Z,89.70
2019-01-31T23:46:24.890Z,85.57
2019-01-31T23:49:00.015Z,80.97
2019-01-31T23:51:36.082Z,81.77
2019-01-31T23:54:11.118Z,87.23
2019-01-31T23:56:45.969Z,81.30
2019-01-31T23:59:20.823Z,83.17
